Terminal Aerodrome Forecast
Issued by NWS Sterling, VA

Current Version | Previous Version | Graphics & Text | Print | Product List | Glossary On
Versions: 1 2 3 4 5 6 7 8 9 10 11 12 13 14 15 16 17 18 19 20 21 22 23
000
FTUS41 KLWX 232348
TAFDCA
TAF
KDCA 232348Z 2400/2424 34014G22KT P6SM SCT200
     FM240300 36009KT P6SM FEW250
     FM240700 VRB03KT P6SM FEW250
     FM241300 16006KT P6SM OVC200=

USA.gov is the U.S. government's official web portal to all federal, state and local government web resources and services.